Macksburg, Iowa
Current Conditions -  °F | °C
As of 3:55 PM on Monday 24 Nov 2014 (Local Time) from KCSQ Reporting Station
Overcast Overcast  
Wind Chill: 14°   Ceiling: 2400
Heat Index: 28°   Visibility: 10mi
Dew Point: 19°   Wind: 23mph
Humidity: 69%   Direction: 290°WNW
Pressure: 29.8"   Gusts: NA
Location:  41.21°N, 94.19°W
Report Text: KCSQ 242155Z AUTO 29020KT 10SM OVC024 M02/M07 A2980 RMK AO2
Loading
Personal Weather Stations






























Interactive Weather Map New forecast layout! Learn more

10-Day Weather Forecast

Advertisements
Track Severe Weather on mobile